Time;durP1;ratioP1;P1;durP2;ratioP2;P2;SDS_P1;SDS_P2;PMS_P1;PMS_P2;Temp;Humidity;BMP_temperature;BMP_pressure;BME280_temperature;BME280_humidity;BME280_pressure;Samples;Min_cycle;Max_cycle;Signal;HPM_P1;HPM_P2
2022/09/29 00:02:17;;;;;;;0.00;0.00;;;;;;;;;;5033848;28;20079;-85
2022/09/29 00:04:43;;;;;;;0.00;0.00;;;;;;;;;;5033896;28;20053;-86
2022/09/29 00:07:09;;;;;;;0.00;0.00;;;;;;;;;;5033851;28;20045;-86
2022/09/29 00:09:35;;;;;;;0.00;0.00;;;;;;;;;;5033617;28;20045;-85
2022/09/29 00:12:01;;;;;;;0.00;0.00;;;;;;;;;;5033725;28;20057;-85
2022/09/29 00:14:27;;;;;;;0.00;0.00;;;;;;;;;;5033207;28;20051;-86
2022/09/29 00:16:53;;;;;;;0.00;0.00;;;;;;;;;;5033703;28;20117;-86
2022/09/29 00:19:19;;;;;;;0.00;0.00;;;;;;;;;;5033443;28;20359;-85
2022/09/29 00:21:45;;;;;;;0.00;0.00;;;;;;;;;;5017077;28;20048;-85
2022/09/29 00:24:11;;;;;;;0.00;0.00;;;;;;;;;;5016779;28;20041;-86
2022/09/29 00:26:37;;;;;;;0.00;0.00;;;;;;;;;;5033667;28;20073;-86
2022/09/29 00:29:04;;;;;;;0.00;0.00;;;;;;;;;;5033267;28;20037;-85
2022/09/29 00:31:31;;;;;;;0.00;0.00;;;;;;;;;;5033265;28;20128;-85
2022/09/29 00:33:57;;;;;;;0.00;0.00;;;;;;;;;;5033215;28;20360;-85
2022/09/29 00:36:24;;;;;;;0.00;0.00;;;;;;;;;;5033072;28;20037;-85
2022/09/29 00:38:53;;;;;;;0.00;0.00;;;;;;;;;;5033185;28;20413;-85
2022/09/29 00:41:23;;;;;;;0.00;0.00;;;;;;;;;;5032952;28;20034;-85
2022/09/29 00:43:52;;;;;;;0.00;0.00;;;;;;;;;;5016788;28;20401;-85
2022/09/29 00:46:28;;;;;;;0.00;0.00;;;;;;;;;;5033074;28;20037;-85
2022/09/29 00:48:56;;;;;;;0.00;0.00;;;;;;;;;;5016602;28;20492;-86
2022/09/29 00:51:22;;;;;;;0.00;0.00;;;;;;;;;;5032837;28;20087;-86
2022/09/29 00:53:48;;;;;;;0.00;0.00;;;;;;;;;;5032709;28;20049;-86
2022/09/29 00:56:15;;;;;;;0.00;0.00;;;;;;;;;;5032680;28;20049;-86
2022/09/29 00:58:53;;;;;;;0.00;0.00;;;;;;;;;;5016342;28;20143;-86
2022/09/29 01:01:20;;;;;;;0.00;0.00;;;;;;;;;;5032598;28;20037;-85
2022/09/29 01:03:47;;;;;;;0.00;0.00;;;;;;;;;;5016161;28;20045;-85
2022/09/29 01:06:15;;;;;;;0.00;0.00;;;;;;;;;;5032620;28;20052;-85
2022/09/29 01:08:57;;;;;;;0.00;0.00;;;;;;;;;;5016275;28;20045;-86
2022/09/29 01:11:23;;;;;;;0.00;0.00;;;;;;;;;;5032924;28;20481;-86
2022/09/29 01:13:50;;;;;;;0.00;0.00;;;;;;;;;;5032195;28;20482;-85
2022/09/29 01:16:16;;;;;;;0.00;0.00;;;;;;;;;;5032476;28;20175;-85
2022/09/29 01:18:43;;;;;;;0.00;0.00;;;;;;;;;;5032474;28;20041;-86
2022/09/29 01:21:13;;;;;;;0.00;0.00;;;;;;;;;;5032219;28;20120;-85
2022/09/29 01:23:38;;;;;;;0.00;0.00;;;;;;;;;;5032598;28;20138;-85
2022/09/29 01:26:26;;;;;;;0.00;0.00;;;;;;;;;;5032160;28;20080;-85
2022/09/29 01:29:11;;;;;;;0.00;0.00;;;;;;;;;;5032499;28;20042;-86
2022/09/29 01:31:46;;;;;;;0.00;0.00;;;;;;;;;;5032024;28;20098;-85
2022/09/29 01:34:28;;;;;;;0.00;0.00;;;;;;;;;;5032038;28;20037;-86
2022/09/29 01:37:09;;;;;;;0.00;0.00;;;;;;;;;;5015609;28;20053;-86
2022/09/29 01:39:54;;;;;;;0.00;0.00;;;;;;;;;;5032400;28;20389;-86
2022/09/29 01:42:23;;;;;;;0.00;0.00;;;;;;;;;;5032088;28;20041;-85
2022/09/29 01:44:53;;;;;;;0.00;0.00;;;;;;;;;;5031635;28;20084;-86
2022/09/29 01:47:43;;;;;;;0.00;0.00;;;;;;;;;;5032293;28;20430;-86
2022/09/29 01:50:15;;;;;;;0.00;0.00;;;;;;;;;;5015350;28;20071;-86
2022/09/29 01:52:43;;;;;;;0.00;0.00;;;;;;;;;;5031946;28;20052;-86
2022/09/29 01:55:17;;;;;;;0.00;0.00;;;;;;;;;;5031602;28;20037;-86
2022/09/29 01:57:47;;;;;;;0.00;0.00;;;;;;;;;;5015588;28;20152;-86
2022/09/29 02:00:14;;;;;;;0.00;0.00;;;;;;;;;;5031722;28;20109;-86
2022/09/29 02:02:51;;;;;;;0.00;0.00;;;;;;;;;;5015508;28;20041;-85
2022/09/29 02:05:40;;;;;;;0.00;0.00;;;;;;;;;;5014699;28;20049;-86
2022/09/29 02:08:18;;;;;;;0.00;0.00;;;;;;;;;;5023900;28;20500;-86
2022/09/29 02:11:18;;;;;;;0.00;0.00;;;;;;;;;;5031419;28;20048;-85
2022/09/29 02:13:44;;;;;;;0.00;0.00;;;;;;;;;;4999433;28;20051;-85
2022/09/29 02:16:12;;;;;;;0.00;0.00;;;;;;;;;;5031199;28;20099;-86
2022/09/29 02:18:58;;;;;;;0.00;0.00;;;;;;;;;;5031535;28;20050;-85
2022/09/29 02:21:27;;;;;;;0.20;0.20;;;;;;;;;;5014686;28;20472;-85
2022/09/29 02:23:53;;;;;;;0.00;0.00;;;;;;;;;;5015123;28;20049;-85
2022/09/29 02:26:20;;;;;;;0.00;0.00;;;;;;;;;;5031245;28;20128;-85
2022/09/29 02:28:46;;;;;;;0.00;0.00;;;;;;;;;;5014984;28;20041;-85
2022/09/29 02:31:13;;;;;;;0.00;0.00;;;;;;;;;;5031537;28;20053;-85
2022/09/29 02:33:39;;;;;;;0.00;0.00;;;;;;;;;;5032819;28;20041;-85
2022/09/29 02:36:11;;;;;;;0.00;0.00;;;;;;;;;;5014768;28;20048;-85
2022/09/29 02:38:47;;;;;;;0.00;0.00;;;;;;;;;;5031302;28;20049;-85
2022/09/29 02:41:31;;;;;;;0.00;0.00;;;;;;;;;;5031204;28;20042;-85
2022/09/29 02:44:16;;;;;;;0.00;0.00;;;;;;;;;;5015276;28;20488;-85
2022/09/29 02:46:42;;;;;;;0.00;0.00;;;;;;;;;;5031054;28;20080;-85
2022/09/29 02:49:35;;;;;;;0.00;0.00;;;;;;;;;;5014803;28;20072;-85
2022/09/29 02:52:01;;;;;;;0.00;0.00;;;;;;;;;;5012662;28;20057;-85
2022/09/29 02:54:41;;;;;;;0.00;0.00;;;;;;;;;;5031143;28;20046;-85
2022/09/29 02:57:19;;;;;;;0.00;0.00;;;;;;;;;;5014755;28;20049;-85
2022/09/29 03:00:11;;;;;;;0.00;0.00;;;;;;;;;;5031173;28;20041;-85
2022/09/29 03:02:38;;;;;;;0.00;0.00;;;;;;;;;;5028177;28;20053;-85
2022/09/29 03:05:05;;;;;;;0.00;0.00;;;;;;;;;;5014913;28;20042;-85
2022/09/29 03:07:31;;;;;;;0.00;0.00;;;;;;;;;;5031092;28;20049;-85
2022/09/29 03:09:57;;;;;;;0.00;0.00;;;;;;;;;;5014556;28;20539;-85
2022/09/29 03:12:23;;;;;;;0.00;0.00;;;;;;;;;;5030818;28;20049;-85
2022/09/29 03:14:49;;;;;;;0.00;0.00;;;;;;;;;;5030694;28;20045;-85
2022/09/29 03:17:15;;;;;;;0.00;0.00;;;;;;;;;;5015990;28;20038;-86
2022/09/29 03:19:41;;;;;;;0.00;0.00;;;;;;;;;;5018338;28;20048;-85
2022/09/29 03:22:07;;;;;;;0.00;0.00;;;;;;;;;;5018090;28;20037;-85
2022/09/29 03:24:34;;;;;;;0.00;0.00;;;;;;;;;;5034770;28;20452;-85
2022/09/29 03:27:01;;;;;;;0.00;0.00;;;;;;;;;;5018132;28;20049;-85
2022/09/29 03:29:27;;;;;;;0.00;0.00;;;;;;;;;;5018144;28;20132;-85
2022/09/29 03:31:53;;;;;;;0.00;0.00;;;;;;;;;;5034413;28;20503;-85
2022/09/29 03:34:19;;;;;;;0.00;0.00;;;;;;;;;;5034424;28;20041;-85
2022/09/29 03:36:45;;;;;;;0.47;0.20;;;;;;;;;;5034274;28;20041;-84
2022/09/29 03:39:12;;;;;;;0.00;0.00;;;;;;;;;;5034444;28;20111;-85
2022/09/29 03:41:38;;;;;;;0.00;0.00;;;;;;;;;;5034093;28;20542;-85
2022/09/29 03:44:04;;;;;;;0.00;0.00;;;;;;;;;;5034172;28;20045;-85
2022/09/29 03:46:30;;;;;;;0.00;0.00;;;;;;;;;;5017790;28;20056;-85
2022/09/29 03:48:56;;;;;;;0.00;0.00;;;;;;;;;;5034256;28;20052;-85
2022/09/29 03:51:22;;;;;;;0.00;0.00;;;;;;;;;;5033859;28;20452;-85
2022/09/29 03:53:48;;;;;;;0.00;0.00;;;;;;;;;;5035188;28;20037;-85
2022/09/29 03:56:14;;;;;;;0.00;0.00;;;;;;;;;;5033911;28;20037;-85
2022/09/29 03:58:40;;;;;;;0.00;0.00;;;;;;;;;;5034015;28;20048;-85
2022/09/29 04:01:06;;;;;;;0.00;0.00;;;;;;;;;;5034037;28;20508;-85
2022/09/29 04:03:32;;;;;;;0.00;0.00;;;;;;;;;;5033894;28;20366;-85
2022/09/29 04:05:58;;;;;;;0.00;0.00;;;;;;;;;;5017368;28;20037;-84
2022/09/29 04:08:24;;;;;;;0.00;0.00;;;;;;;;;;5033602;28;20461;-85
2022/09/29 04:10:50;;;;;;;0.00;0.00;;;;;;;;;;5017444;28;20084;-85
2022/09/29 04:13:16;;;;;;;0.00;0.00;;;;;;;;;;5033572;28;20084;-85
2022/09/29 04:15:42;;;;;;;0.00;0.00;;;;;;;;;;5033397;28;20045;-85
2022/09/29 04:18:08;;;;;;;0.00;0.00;;;;;;;;;;5033521;28;20073;-85
2022/09/29 04:20:34;;;;;;;0.00;0.00;;;;;;;;;;5033555;28;20485;-85
2022/09/29 04:23:00;;;;;;;0.00;0.00;;;;;;;;;;5033576;28;20045;-85
2022/09/29 04:25:29;;;;;;;0.00;0.00;;;;;;;;;;5016950;28;20045;-85
2022/09/29 04:27:55;;;;;;;0.00;0.00;;;;;;;;;;5033161;28;20116;-85
2022/09/29 04:30:21;;;;;;;0.00;0.00;;;;;;;;;;5034048;28;20061;-85
2022/09/29 04:32:47;;;;;;;0.00;0.00;;;;;;;;;;5016617;28;20481;-85
2022/09/29 04:35:13;;;;;;;0.00;0.00;;;;;;;;;;5033313;28;20043;-85
2022/09/29 04:37:39;;;;;;;0.00;0.00;;;;;;;;;;5033377;28;20091;-85
2022/09/29 04:40:05;;;;;;;0.00;0.00;;;;;;;;;;5017053;28;20366;-85
2022/09/29 04:42:32;;;;;;;0.00;0.00;;;;;;;;;;5016540;28;20087;-85
2022/09/29 04:44:58;;;;;;;0.00;0.00;;;;;;;;;;5016697;28;20056;-86
2022/09/29 04:47:24;;;;;;;0.00;0.00;;;;;;;;;;5016782;28;20049;-86
2022/09/29 04:49:50;;;;;;;0.00;0.00;;;;;;;;;;5016643;28;20103;-86
2022/09/29 04:52:16;;;;;;;0.00;0.00;;;;;;;;;;5032745;28;20575;-86
2022/09/29 04:54:42;;;;;;;0.00;0.00;;;;;;;;;;5032852;28;20124;-85
2022/09/29 04:57:09;;;;;;;0.00;0.00;;;;;;;;;;5032593;28;20445;-85
2022/09/29 04:59:35;;;;;;;0.00;0.00;;;;;;;;;;5033096;28;20038;-86
2022/09/29 05:02:01;;;;;;;0.00;0.00;;;;;;;;;;5032700;28;20041;-85
2022/09/29 05:04:27;;;;;;;0.00;0.00;;;;;;;;;;5016535;28;20049;-85
2022/09/29 05:06:53;;;;;;;0.00;0.00;;;;;;;;;;5016347;28;20045;-85
2022/09/29 05:09:19;;;;;;;0.00;0.00;;;;;;;;;;5032922;28;20041;-85
2022/09/29 05:11:45;;;;;;;0.00;0.00;;;;;;;;;;5016192;28;20076;-85
2022/09/29 05:14:11;;;;;;;0.00;0.00;;;;;;;;;;5016010;28;20054;-85
2022/09/29 05:16:37;;;;;;;0.00;0.00;;;;;;;;;;5032604;28;20048;-86
2022/09/29 05:19:03;;;;;;;0.00;0.00;;;;;;;;;;5032172;28;20076;-85
2022/09/29 05:21:29;;;;;;;0.00;0.00;;;;;;;;;;5032594;28;20123;-86
2022/09/29 05:23:59;;;;;;;0.00;0.00;;;;;;;;;;5032180;28;20041;-85
2022/09/29 05:26:25;;;;;;;0.00;0.00;;;;;;;;;;5015982;28;20477;-86
2022/09/29 05:28:51;;;;;;;0.00;0.00;;;;;;;;;;5032182;28;20548;-86
2022/09/29 05:31:17;;;;;;;0.00;0.00;;;;;;;;;;5032213;28;20080;-83
2022/09/29 05:33:44;;;;;;;0.00;0.00;;;;;;;;;;5031893;28;20073;-84
2022/09/29 05:36:10;;;;;;;0.00;0.00;;;;;;;;;;5015675;28;20041;-84
2022/09/29 05:38:37;;;;;;;0.00;0.00;;;;;;;;;;5032049;28;20033;-84
2022/09/29 05:41:04;;;;;;;0.00;0.00;;;;;;;;;;5014862;28;20041;-84
2022/09/29 05:43:30;;;;;;;0.00;0.00;;;;;;;;;;5015338;28;20120;-84
2022/09/29 05:46:00;;;;;;;0.00;0.00;;;;;;;;;;5032289;28;20129;-84
2022/09/29 05:48:30;;;;;;;0.00;0.00;;;;;;;;;;5031753;28;20056;-84
2022/09/29 05:50:57;;;;;;;0.00;0.00;;;;;;;;;;5031896;28;20048;-85
2022/09/29 05:53:23;;;;;;;0.00;0.00;;;;;;;;;;5015228;28;20037;-84
2022/09/29 05:55:49;;;;;;;0.00;0.00;;;;;;;;;;5031883;28;20492;-84
2022/09/29 05:58:16;;;;;;;0.00;0.00;;;;;;;;;;5031997;28;20064;-84
2022/09/29 06:00:42;;;;;;;0.00;0.00;;;;;;;;;;5015297;28;20432;-84
2022/09/29 06:03:08;;;;;;;0.00;0.00;;;;;;;;;;5031507;28;20041;-84
2022/09/29 06:05:38;;;;;;;0.00;0.00;;;;;;;;;;5015489;28;20067;-85
2022/09/29 06:08:04;;;;;;;0.00;0.00;;;;;;;;;;5015296;28;20045;-84
2022/09/29 06:10:30;;;;;;;0.00;0.00;;;;;;;;;;5031698;28;20049;-84
2022/09/29 06:13:02;;;;;;;0.00;0.00;;;;;;;;;;5031394;28;20052;-84
2022/09/29 06:15:28;;;;;;;0.00;0.00;;;;;;;;;;5031347;28;20548;-83
2022/09/29 06:17:54;;;;;;;0.00;0.00;;;;;;;;;;5014966;28;20135;-84
2022/09/29 06:20:20;;;;;;;0.00;0.00;;;;;;;;;;5031976;28;20045;-84
2022/09/29 06:22:47;;;;;;;0.00;0.00;;;;;;;;;;5015040;28;20171;-84
2022/09/29 06:25:13;;;;;;;0.00;0.00;;;;;;;;;;5031751;28;20052;-84
2022/09/29 06:27:39;;;;;;;0.00;0.00;;;;;;;;;;5014971;28;20124;-84
2022/09/29 06:30:06;;;;;;;0.00;0.00;;;;;;;;;;5031417;28;20133;-84
2022/09/29 06:32:33;;;;;;;0.00;0.00;;;;;;;;;;5030819;28;20046;-84
2022/09/29 06:37:45;;;;;;;0.00;0.00;;;;;;;;;;5030754;28;20049;-84
2022/09/29 06:40:11;;;;;;;0.00;0.00;;;;;;;;;;5030739;28;20041;-83
2022/09/29 06:42:37;;;;;;;0.00;0.00;;;;;;;;;;5030790;28;20108;-84
2022/09/29 06:45:03;;;;;;;0.00;0.00;;;;;;;;;;5030529;28;20497;-84
2022/09/29 06:47:30;;;;;;;0.00;0.00;;;;;;;;;;5030826;28;20037;-84
2022/09/29 06:49:58;;;;;;;0.00;0.00;;;;;;;;;;5030654;28;20037;-84
2022/09/29 06:52:24;;;;;;;0.00;0.00;;;;;;;;;;5016500;28;20049;-88
2022/09/29 06:54:50;;;;;;;0.65;0.10;;;;;;;;;;5034694;28;20075;-84
2022/09/29 06:57:17;;;;;;;0.00;0.00;;;;;;;;;;5019009;28;20049;-86
2022/09/29 06:59:44;;;;;;;0.00;0.00;;;;;;;;;;5018689;28;20043;-85
2022/09/29 07:02:10;;;;;;;0.00;0.00;;;;;;;;;;5028176;28;20104;-88
2022/09/29 07:04:36;;;;;;;0.00;0.00;;;;;;;;;;5034982;28;20088;-86
2022/09/29 07:07:02;;;;;;;0.20;0.10;;;;;;;;;;5018513;28;20044;-84
2022/09/29 07:09:28;;;;;;;0.00;0.00;;;;;;;;;;5034623;28;20041;-84
2022/09/29 07:11:54;;;;;;;0.00;0.00;;;;;;;;;;5018062;28;20083;-84
2022/09/29 07:14:22;;;;;;;0.00;0.00;;;;;;;;;;5033874;28;20057;-84
2022/09/29 07:16:48;;;;;;;0.00;0.00;;;;;;;;;;5034291;28;20048;-84
2022/09/29 07:19:15;;;;;;;0.00;0.00;;;;;;;;;;5034124;28;20473;-84
2022/09/29 07:21:41;;;;;;;0.00;0.00;;;;;;;;;;5034292;28;20041;-84
2022/09/29 07:24:08;;;;;;;0.00;0.00;;;;;;;;;;5033915;28;20045;-84
2022/09/29 07:26:34;;;;;;;0.00;0.00;;;;;;;;;;5034515;28;20492;-85
2022/09/29 07:29:00;;;;;;;0.00;0.00;;;;;;;;;;5017681;28;20049;-85
2022/09/29 07:31:27;;;;;;;0.00;0.00;;;;;;;;;;5034001;28;20041;-84
2022/09/29 07:33:53;;;;;;;0.00;0.00;;;;;;;;;;5017398;28;20471;-84
2022/09/29 07:36:20;;;;;;;0.00;0.00;;;;;;;;;;5034235;28;20401;-84
2022/09/29 07:38:47;;;;;;;0.00;0.00;;;;;;;;;;5033567;28;20038;-84
2022/09/29 07:41:13;;;;;;;0.00;0.00;;;;;;;;;;5034179;28;20033;-83
2022/09/29 07:43:39;;;;;;;0.20;0.10;;;;;;;;;;5017061;28;20125;-84
2022/09/29 07:46:06;;;;;;;0.00;0.00;;;;;;;;;;5018356;28;20444;-87
2022/09/29 07:48:32;;;;;;;0.00;0.00;;;;;;;;;;5033948;28;20087;-86
2022/09/29 07:51:15;;;;;;;0.00;0.00;;;;;;;;;;5034634;28;20057;-86
2022/09/29 07:53:43;;;;;;;0.00;0.00;;;;;;;;;;5018480;28;20053;-86
2022/09/29 07:56:10;;;;;;;0.00;0.00;;;;;;;;;;5033995;28;20060;-85
2022/09/29 07:58:37;;;;;;;0.43;0.15;;;;;;;;;;5033988;28;20615;-85
2022/09/29 08:01:05;;;;;;;0.00;0.00;;;;;;;;;;5033872;28;20083;-85
2022/09/29 08:03:31;;;;;;;0.00;0.00;;;;;;;;;;5033045;28;20444;-85
2022/09/29 08:05:58;;;;;;;0.00;0.00;;;;;;;;;;5035356;28;20037;-86
2022/09/29 08:08:24;;;;;;;0.00;0.00;;;;;;;;;;5033744;28;20045;-82
2022/09/29 08:10:50;;;;;;;0.00;0.00;;;;;;;;;;5033749;28;20052;-84
2022/09/29 08:13:16;;;;;;;0.00;0.00;;;;;;;;;;5033651;28;20441;-84
2022/09/29 08:15:42;;;;;;;0.00;0.00;;;;;;;;;;5033159;28;20404;-85
2022/09/29 08:18:08;;;;;;;0.00;0.00;;;;;;;;;;5017181;28;20537;-85
2022/09/29 08:20:35;;;;;;;0.00;0.00;;;;;;;;;;5016857;28;20129;-84
2022/09/29 08:23:01;;;;;;;0.00;0.00;;;;;;;;;;5033815;28;20400;-84
2022/09/29 08:25:27;;;;;;;0.00;0.00;;;;;;;;;;5033495;28;20038;-84
2022/09/29 08:27:53;;;;;;;0.00;0.00;;;;;;;;;;5016044;28;20045;-85
2022/09/29 08:30:19;;;;;;;0.00;0.00;;;;;;;;;;5033123;28;20045;-85
2022/09/29 08:32:52;;;;;;;0.00;0.00;;;;;;;;;;5033239;28;20493;-85
2022/09/29 08:35:19;;;;;;;0.00;0.00;;;;;;;;;;5032877;28;20084;-85
2022/09/29 08:37:45;;;;;;;0.00;0.00;;;;;;;;;;5033198;28;20120;-85
2022/09/29 08:40:11;;;;;;;0.00;0.00;;;;;;;;;;5033217;28;20236;-86
2022/09/29 08:42:37;;;;;;;0.00;0.00;;;;;;;;;;5033145;28;20117;-85
2022/09/29 08:45:06;;;;;;;0.00;0.00;;;;;;;;;;5032805;28;20053;-85
2022/09/29 08:47:38;;;;;;;0.00;0.00;;;;;;;;;;5016555;28;20041;-85
2022/09/29 08:50:24;;;;;;;0.00;0.00;;;;;;;;;;5016570;28;20115;-86
2022/09/29 08:52:53;;;;;;;0.00;0.00;;;;;;;;;;5003612;28;20065;-86
2022/09/29 08:55:22;;;;;;;0.00;0.00;;;;;;;;;;5032556;28;20048;-85
2022/09/29 08:57:57;;;;;;;0.00;0.00;;;;;;;;;;5016571;28;20393;-85
2022/09/29 09:00:28;;;;;;;0.00;0.00;;;;;;;;;;5032684;28;20119;-83
2022/09/29 09:02:54;;;;;;;0.00;0.00;;;;;;;;;;5033306;28;20183;-84
2022/09/29 09:05:23;;;;;;;0.00;0.00;;;;;;;;;;5032457;28;20116;-84
2022/09/29 09:07:58;;;;;;;0.00;0.00;;;;;;;;;;5016136;28;20037;-85
2022/09/29 09:10:24;;;;;;;0.00;0.00;;;;;;;;;;5016210;28;20389;-84
2022/09/29 09:13:06;;;;;;;0.00;0.00;;;;;;;;;;5032923;28;20059;-84
2022/09/29 09:15:44;;;;;;;0.00;0.00;;;;;;;;;;5032428;28;20068;-84
2022/09/29 09:18:27;;;;;;;0.00;0.00;;;;;;;;;;5016207;28;20515;-85
2022/09/29 09:21:03;;;;;;;0.00;0.00;;;;;;;;;;5032392;28;20389;-84
2022/09/29 09:23:41;;;;;;;0.00;0.00;;;;;;;;;;5032487;28;20134;-84
2022/09/29 09:26:08;;;;;;;0.00;0.00;;;;;;;;;;5032729;28;20418;-84
2022/09/29 09:28:42;;;;;;;0.00;0.00;;;;;;;;;;5032313;28;20052;-84
2022/09/29 09:31:30;;;;;;;0.00;0.00;;;;;;;;;;5031083;28;20049;-84
2022/09/29 09:34:03;;;;;;;0.00;0.00;;;;;;;;;;5032381;28;20064;-84
2022/09/29 09:36:32;;;;;;;0.00;0.00;;;;;;;;;;5031927;28;20485;-83
2022/09/29 09:39:16;;;;;;;0.00;0.00;;;;;;;;;;5032175;28;20117;-85
2022/09/29 09:41:44;;;;;;;0.00;0.00;;;;;;;;;;5031830;28;20175;-85
2022/09/29 09:44:15;;;;;;;0.00;0.00;;;;;;;;;;5070387;22;20048;-87
2022/09/29 09:47:01;;;;;;;0.00;0.00;;;;;;;;;;5054921;28;20047;-86
2022/09/29 09:49:27;;;;;;;0.00;0.00;;;;;;;;;;5087870;28;20392;-86
2022/09/29 09:52:04;;;;;;;0.00;0.00;;;;;;;;;;5071486;28;20037;-86
2022/09/29 09:54:35;;;;;;;0.00;0.00;;;;;;;;;;5055221;28;20044;-86
2022/09/29 09:57:05;;;;;;;0.00;0.00;;;;;;;;;;5071619;28;20036;-86
2022/09/29 09:59:38;;;;;;;0.00;0.00;;;;;;;;;;5055657;28;20035;-87
2022/09/29 10:02:04;;;;;;;0.00;0.00;;;;;;;;;;5054996;28;20033;-87
2022/09/29 10:04:32;;;;;;;0.00;0.00;;;;;;;;;;5055108;28;20135;-86
2022/09/29 10:06:58;;;;;;;0.00;0.00;;;;;;;;;;5054763;28;20093;-87
2022/09/29 10:09:24;;;;;;;0.00;0.00;;;;;;;;;;5071943;28;20040;-87
2022/09/29 10:11:50;;;;;;;0.00;0.00;;;;;;;;;;5054666;28;20047;-87
2022/09/29 10:14:22;;;;;;;0.00;0.00;;;;;;;;;;5071494;28;20423;-86
2022/09/29 10:16:50;;;;;;;0.00;0.00;;;;;;;;;;5071252;28;20043;-87
2022/09/29 10:19:20;;;;;;;0.00;0.00;;;;;;;;;;5054969;28;20127;-87
2022/09/29 10:21:46;;;;;;;0.00;0.00;;;;;;;;;;5054907;28;20036;-87
2022/09/29 10:24:29;;;;;;;0.00;0.00;;;;;;;;;;5071746;28;20048;-87
2022/09/29 10:26:57;;;;;;;0.00;0.00;;;;;;;;;;5053912;28;20045;-87
2022/09/29 10:29:43;;;;;;;0.00;0.00;;;;;;;;;;5054513;28;20040;-85
2022/09/29 10:32:12;;;;;;;0.00;0.00;;;;;;;;;;5062034;28;20083;-88
2022/09/29 10:34:43;;;;;;;0.00;0.00;;;;;;;;;;5051380;28;20080;-87
2022/09/29 10:37:23;;;;;;;0.00;0.00;;;;;;;;;;5051146;28;20076;-85
2022/09/29 10:39:49;;;;;;;0.00;0.00;;;;;;;;;;5071572;28;20040;-85
2022/09/29 10:42:21;;;;;;;0.00;0.00;;;;;;;;;;5071115;28;20511;-86
2022/09/29 10:44:52;;;;;;;0.00;0.00;;;;;;;;;;5054297;28;20056;-86
2022/09/29 10:47:19;;;;;;;0.00;0.00;;;;;;;;;;5071045;28;20045;-86
2022/09/29 10:49:45;;;;;;;0.00;0.00;;;;;;;;;;5071235;28;20460;-86
2022/09/29 10:52:29;;;;;;;0.00;0.00;;;;;;;;;;5054211;28;20037;-86
2022/09/29 10:54:59;;;;;;;0.00;0.00;;;;;;;;;;5051691;28;20040;-87
2022/09/29 10:57:26;;;;;;;0.00;0.00;;;;;;;;;;5071078;28;20040;-86
2022/09/29 10:59:53;;;;;;;0.00;0.00;;;;;;;;;;5053532;28;20388;-87
2022/09/29 11:02:22;;;;;;;0.00;0.00;;;;;;;;;;5071098;28;20389;-87
2022/09/29 11:04:49;;;;;;;0.00;0.00;;;;;;;;;;5054339;28;20574;-87
2022/09/29 11:07:15;;;;;;;0.00;0.00;;;;;;;;;;5070829;28;20048;-88
2022/09/29 11:09:42;;;;;;;0.00;0.00;;;;;;;;;;5071395;28;20040;-89
2022/09/29 11:12:25;;;;;;;0.00;0.00;;;;;;;;;;5053834;28;20051;-87
2022/09/29 11:14:52;;;;;;;0.00;0.00;;;;;;;;;;5070826;28;20048;-88
2022/09/29 11:17:21;;;;;;;0.00;0.00;;;;;;;;;;5054331;28;20068;-88
2022/09/29 11:19:48;;;;;;;0.00;0.00;;;;;;;;;;5054782;28;20037;-87
2022/09/29 11:22:32;;;;;;;0.00;0.00;;;;;;;;;;5054534;28;20079;-87
2022/09/29 11:25:04;;;;;;;0.00;0.00;;;;;;;;;;5054547;28;20048;-88
2022/09/29 11:27:37;;;;;;;0.00;0.00;;;;;;;;;;5054089;28;20042;-88
2022/09/29 11:30:06;;;;;;;0.00;0.00;;;;;;;;;;5054422;28;20052;-87
2022/09/29 11:32:32;;;;;;;0.00;0.00;;;;;;;;;;5054186;28;20040;-87
2022/09/29 11:35:15;;;;;;;0.00;0.00;;;;;;;;;;5067693;28;20045;-87
2022/09/29 11:37:44;;;;;;;0.00;0.00;;;;;;;;;;5053613;28;20094;-88
2022/09/29 11:40:29;;;;;;;0.00;0.00;;;;;;;;;;5057137;28;20500;-88
2022/09/29 11:43:05;;;;;;;0.00;0.00;;;;;;;;;;5073951;28;20040;-87
2022/09/29 11:45:51;;;;;;;0.00;0.00;;;;;;;;;;5052550;28;20403;-86
2022/09/29 11:48:41;;;;;;;0.00;0.00;;;;;;;;;;5061049;28;20127;-85
2022/09/29 11:51:13;;;;;;;0.00;0.00;;;;;;;;;;5054535;28;20052;-85
2022/09/29 11:53:40;;;;;;;0.00;0.00;;;;;;;;;;5074247;28;20050;-86
2022/09/29 11:56:30;;;;;;;0.00;0.00;;;;;;;;;;5071201;28;20143;-87
2022/09/29 11:59:15;;;;;;;0.00;0.00;;;;;;;;;;5051137;28;20472;-87
2022/09/29 12:01:51;;;;;;;0.00;0.00;;;;;;;;;;5055937;28;20473;-86
2022/09/29 12:04:29;;;;;;;0.00;0.00;;;;;;;;;;5055972;28;20514;-83
2022/09/29 12:07:15;;;;;;;0.00;0.00;;;;;;;;;;5066591;28;20498;-86
2022/09/29 12:09:55;;;;;;;0.00;0.00;;;;;;;;;;5068821;28;20469;-86
2022/09/29 12:12:24;;;;;;;0.00;0.00;;;;;;;;;;5058126;28;20484;-85
2022/09/29 12:14:53;;;;;;;0.00;0.00;;;;;;;;;;5071599;28;20051;-81
2022/09/29 12:17:20;;;;;;;0.00;0.00;;;;;;;;;;5054636;28;20044;-85
2022/09/29 12:19:50;;;;;;;0.00;0.00;;;;;;;;;;5053815;28;20033;-85
2022/09/29 12:22:18;;;;;;;0.00;0.00;;;;;;;;;;5057419;28;20028;-86
2022/09/29 12:24:50;;;;;;;0.00;0.00;;;;;;;;;;5053681;28;20052;-86
2022/09/29 12:27:24;;;;;;;0.00;0.00;;;;;;;;;;5050762;28;20052;-87
2022/09/29 12:29:57;;;;;;;0.00;0.00;;;;;;;;;;5051588;28;20048;-87
2022/09/29 12:32:28;;;;;;;0.00;0.00;;;;;;;;;;5053361;28;20388;-86
2022/09/29 12:34:59;;;;;;;0.00;0.00;;;;;;;;;;5053335;28;20044;-88
2022/09/29 12:37:35;;;;;;;0.00;0.00;;;;;;;;;;5053692;28;20062;-89
2022/09/29 12:40:04;;;;;;;0.00;0.00;;;;;;;;;;5054208;28;20048;-88
2022/09/29 12:42:33;;;;;;;0.00;0.00;;;;;;;;;;5053383;28;20391;-89
2022/09/29 12:45:10;;;;;;;0.00;0.00;;;;;;;;;;5053212;28;20069;-88
2022/09/29 12:47:45;;;;;;;0.00;0.00;;;;;;;;;;5053463;28;20526;-89
2022/09/29 12:50:18;;;;;;;0.00;0.00;;;;;;;;;;5054655;28;20273;-89
2022/09/29 12:53:05;;;;;;;0.00;0.00;;;;;;;;;;5063871;28;20119;-88
2022/09/29 12:55:50;;;;;;;0.00;0.00;;;;;;;;;;5038855;28;20056;-87
2022/09/29 12:58:21;;;;;;;0.00;0.00;;;;;;;;;;5073070;28;20044;-88
2022/09/29 13:00:51;;;;;;;0.00;0.00;;;;;;;;;;5055079;28;20383;-89
2022/09/29 13:03:36;;;;;;;0.00;0.00;;;;;;;;;;5053226;28;20044;-88
2022/09/29 13:06:11;;;;;;;0.00;0.00;;;;;;;;;;5037033;28;20491;-89
2022/09/29 13:08:59;;;;;;;0.00;0.00;;;;;;;;;;5060733;28;20068;-89
2022/09/29 13:11:32;;;;;;;0.00;0.00;;;;;;;;;;5056376;28;20392;-88
2022/09/29 13:14:17;;;;;;;0.00;0.00;;;;;;;;;;5056362;28;20037;-88
2022/09/29 13:16:58;;;;;;;0.00;0.00;;;;;;;;;;5056449;28;20131;-88
2022/09/29 13:19:31;;;;;;;0.00;0.00;;;;;;;;;;5072985;28;20534;-89
2022/09/29 13:22:13;;;;;;;0.00;0.00;;;;;;;;;;5072767;28;20054;-89
2022/09/29 13:24:54;;;;;;;0.00;0.00;;;;;;;;;;5072996;28;20439;-88
2022/09/29 13:27:25;;;;;;;0.00;0.00;;;;;;;;;;5072539;28;20040;-88
2022/09/29 13:30:02;;;;;;;0.00;0.00;;;;;;;;;;5056487;28;20037;-89
2022/09/29 13:32:28;;;;;;;0.00;0.00;;;;;;;;;;5055810;28;20043;-88
2022/09/29 13:34:56;;;;;;;0.00;0.00;;;;;;;;;;5055660;28;20147;-87
2022/09/29 13:37:24;;;;;;;0.00;0.00;;;;;;;;;;5072276;28;20087;-88
2022/09/29 13:40:05;;;;;;;0.00;0.00;;;;;;;;;;5073025;28;20040;-88
2022/09/29 13:42:38;;;;;;;0.00;0.00;;;;;;;;;;5072750;28;20037;-88
2022/09/29 13:45:14;;;;;;;0.00;0.00;;;;;;;;;;5055443;28;20063;-89
2022/09/29 13:47:45;;;;;;;0.00;0.00;;;;;;;;;;5072524;28;20047;-89
2022/09/29 13:50:30;;;;;;;0.00;0.00;;;;;;;;;;5073312;28;20165;-89
2022/09/29 13:53:15;;;;;;;0.00;0.00;;;;;;;;;;5074335;28;20076;-89
2022/09/29 13:55:41;;;;;;;;;;;;;;;;;;5075146;28;20127;-89
2022/09/29 13:58:20;;;;;;;0.00;0.00;;;;;;;;;;5058259;28;19978;-89
2022/09/29 14:00:46;;;;;;;0.00;0.00;;;;;;;;;;5058222;28;20036;-89
2022/09/29 14:03:26;;;;;;;0.00;0.00;;;;;;;;;;5075013;28;20059;-89
2022/09/29 14:05:56;;;;;;;0.00;0.00;;;;;;;;;;5074335;28;20075;-89
2022/09/29 14:08:26;;;;;;;0.00;0.00;;;;;;;;;;5074911;28;20051;-88
2022/09/29 14:11:01;;;;;;;0.00;0.00;;;;;;;;;;5056175;28;20040;-88
2022/09/29 14:13:31;;;;;;;0.00;0.00;;;;;;;;;;5056113;28;20045;-89
2022/09/29 14:16:09;;;;;;;0.00;0.00;;;;;;;;;;5058924;28;20037;-90
2022/09/29 14:18:35;;;;;;;0.00;0.00;;;;;;;;;;5057074;28;20194;-89
2022/09/29 14:21:03;;;;;;;0.00;0.00;;;;;;;;;;5074928;28;20041;-88
2022/09/29 14:23:44;;;;;;;0.00;0.00;;;;;;;;;;5072941;28;20037;-89
2022/09/29 14:26:29;;;;;;;0.00;0.00;;;;;;;;;;5072078;28;20125;-88
2022/09/29 14:28:55;;;;;;;0.00;0.00;;;;;;;;;;5055410;28;20106;-90
2022/09/29 14:31:22;;;;;;;0.00;0.00;;;;;;;;;;5071805;28;20044;-88
2022/09/29 14:33:52;;;;;;;0.00;0.00;;;;;;;;;;5071688;28;20040;-88
2022/09/29 14:36:20;;;;;;;0.00;0.00;;;;;;;;;;5055320;28;20048;-89
2022/09/29 14:38:49;;;;;;;0.00;0.00;;;;;;;;;;5071838;28;20051;-89
2022/09/29 14:41:24;;;;;;;0.00;0.00;;;;;;;;;;5072103;28;20045;-87
2022/09/29 14:43:50;;;;;;;0.00;0.00;;;;;;;;;;5071555;28;20053;-87
2022/09/29 14:52:43;;;;;;;0.00;0.00;;;;;;;;;;5071822;28;20044;-89
2022/09/29 14:55:20;;;;;;;0.00;0.00;;;;;;;;;;5071757;28;20041;-88
2022/09/29 14:57:46;;;;;;;0.00;0.00;;;;;;;;;;5054975;28;20782;-88
2022/09/29 15:00:18;;;;;;;0.00;0.00;;;;;;;;;;5071826;28;20070;-87
2022/09/29 15:02:46;;;;;;;0.00;0.00;;;;;;;;;;5054511;28;20032;-88
2022/09/29 15:05:26;;;;;;;0.00;0.00;;;;;;;;;;5054486;28;20049;-87
2022/09/29 15:07:53;;;;;;;0.00;0.00;;;;;;;;;;5054627;28;20036;-87
2022/09/29 15:10:21;;;;;;;0.00;0.00;;;;;;;;;;5071471;28;20502;-88
2022/09/29 15:12:49;;;;;;;0.00;0.00;;;;;;;;;;5071933;28;20048;-87